Time;durP1;ratioP1;P1;durP2;ratioP2;P2;SDS_P1;SDS_P2;PMS_P1;PMS_P2;Temp;Humidity;BMP_temperature;BMP_pressure;BME280_temperature;BME280_humidity;BME280_pressure;Samples;Min_cycle;Max_cycle;Signal;HPM_P1;HPM_P2
2022/01/08 00:02:52;;;;;;;28.12;12.10;;;;;;;-4.24;82.02;101195.52;1641182;87;21317;-83
2022/01/08 00:05:59;;;;;;;18.02;7.80;;;;;;;-4.21;82.20;101198.94;1682505;84;21737;-82
2022/01/08 00:09:04;;;;;;;18.37;8.70;;;;;;;-4.07;82.25;101198.39;1683915;85;21323;-78
2022/01/08 00:12:08;;;;;;;18.25;9.00;;;;;;;-3.93;81.99;101198.70;1683826;84;21304;-76
2022/01/08 00:15:14;;;;;;;20.88;7.80;;;;;;;-3.84;81.26;101197.45;1683825;84;21303;-76
2022/01/08 00:18:19;;;;;;;22.95;9.70;;;;;;;-3.80;80.64;101195.53;1683896;85;21161;-76
2022/01/08 00:21:23;;;;;;;21.33;10.40;;;;;;;-3.78;80.67;101190.98;1683877;84;21370;-76
2022/01/08 00:24:29;;;;;;;20.05;9.75;;;;;;;-3.80;80.67;101194.20;1684006;85;21177;-82
2022/01/08 00:27:34;;;;;;;18.42;7.78;;;;;;;-3.82;80.92;101190.23;1683603;85;21319;-76
2022/01/08 00:30:40;;;;;;;17.37;8.38;;;;;;;-3.82;81.09;101195.58;1683832;84;21343;-82
2022/01/08 00:33:47;;;;;;;11.93;6.62;;;;;;;-3.86;80.84;101202.87;1683822;85;21737;-80
2022/01/08 00:36:53;;;;;;;18.50;7.85;;;;;;;-3.92;80.52;101196.42;1683754;84;21339;-76
2022/01/08 00:39:58;;;;;;;16.70;8.48;;;;;;;-3.94;80.04;101196.97;1683806;85;21347;-76
2022/01/08 00:43:03;;;;;;;18.23;8.30;;;;;;;-3.96;80.08;101196.61;1683687;85;21908;-82
2022/01/08 00:46:11;;;;;;;19.48;8.40;;;;;;;-4.02;80.49;101200.88;1683813;84;21327;-83
2022/01/08 00:49:15;;;;;;;12.73;6.90;;;;;;;-4.10;80.72;101199.84;1683914;85;21189;-78
2022/01/08 00:52:20;;;;;;;15.98;7.62;;;;;;;-4.20;80.86;101195.80;1683671;84;21335;-83
2022/01/08 00:55:25;;;;;;;14.95;7.45;;;;;;;-4.31;80.89;101192.22;1683903;84;21296;-82
2022/01/08 00:58:31;;;;;;;17.20;7.85;;;;;;;-4.40;81.32;101199.26;1682978;85;21320;-77
2022/01/08 01:01:36;;;;;;;16.73;7.50;;;;;;;-4.37;81.78;101207.16;1683717;84;21327;-76
2022/01/08 01:04:41;;;;;;;16.75;7.80;;;;;;;-4.32;81.80;101200.31;1683015;85;21884;-83
2022/01/08 01:07:46;;;;;;;16.05;7.28;;;;;;;-4.32;81.92;101200.31;1629771;88;21375;-76
2022/01/08 01:10:51;;;;;;;16.57;7.92;;;;;;;-4.32;82.25;101197.17;1629781;86;21244;-82
2022/01/08 01:13:57;;;;;;;14.05;7.20;;;;;;;-4.31;82.17;101187.35;1629557;88;21332;-77
2022/01/08 01:17:02;;;;;;;17.00;7.80;;;;;;;-4.37;82.16;101192.47;1629697;86;21298;-82
2022/01/08 01:20:08;;;;;;;13.13;6.08;;;;;;;-4.39;82.57;101197.85;1629756;86;21312;-77
2022/01/08 01:23:19;;;;;;;14.33;6.05;;;;;;;-4.34;82.46;101194.14;1629779;88;21749;-83
2022/01/08 01:26:24;;;;;;;14.33;7.65;;;;;;;-4.35;81.88;101187.06;1629799;86;21393;-83
2022/01/08 01:49:49;;;;;;;16.52;8.13;;;;;;;-4.75;81.24;101196.58;1629632;88;21343;-81
2022/01/08 01:52:53;;;;;;;20.35;9.18;;;;;;;-4.78;81.40;101189.58;1629660;88;21857;-77
2022/01/08 01:55:59;;;;;;;14.50;8.45;;;;;;;-4.87;81.18;101192.59;1629863;86;21380;-83
2022/01/08 01:59:04;;;;;;;20.35;9.20;;;;;;;-4.93;81.60;101192.83;1629202;88;21368;-78
2022/01/08 02:02:09;;;;;;;21.40;9.70;;;;;;;-4.99;82.01;101189.89;1629748;86;21348;-77
2022/01/08 02:05:16;;;;;;;18.90;10.00;;;;;;;-5.00;82.54;101192.16;1629693;86;21319;-77
2022/01/08 02:08:21;;;;;;;24.12;9.53;;;;;;;-5.02;82.51;101191.36;1641151;87;21411;-77
2022/01/08 02:11:26;;;;;;;26.48;10.25;;;;;;;-5.03;82.70;101189.63;1627699;87;21351;-83
2022/01/08 02:14:31;;;;;;;25.37;10.15;;;;;;;-5.06;83.00;101189.73;1669691;86;21242;-77
2022/01/08 02:17:37;;;;;;;21.27;10.20;;;;;;;-5.04;83.31;101189.66;1655807;86;21312;-77
2022/01/08 02:20:42;;;;;;;18.15;9.88;;;;;;;-5.03;83.47;101190.09;1669689;85;21316;-77
2022/01/08 02:23:48;;;;;;;19.73;9.85;;;;;;;-5.01;83.80;101192.23;1627688;88;21794;-80
2022/01/08 02:26:54;;;;;;;22.30;9.75;;;;;;;-5.01;84.01;101193.09;1669727;85;21363;-83
2022/01/08 02:29:59;;;;;;;18.30;8.43;;;;;;;-4.99;84.01;101198.36;1626855;88;21928;-77
2022/01/08 02:33:04;;;;;;;17.60;8.40;;;;;;;-4.95;84.19;101203.53;1668962;86;21292;-78
2022/01/08 02:36:15;;;;;;;13.75;7.50;;;;;;;-4.93;84.00;101196.36;1655914;85;21273;-77
2022/01/08 02:39:20;;;;;;;18.45;8.68;;;;;;;-4.89;83.79;101198.46;1669707;86;21830;-77
2022/01/08 02:42:36;;;;;;;20.68;7.42;;;;;;;-4.87;83.34;101204.59;1655720;85;21224;-83
2022/01/08 02:45:33;;;;;;;17.85;8.85;;;;;;;-4.90;83.16;101199.36;1669626;85;21174;-83
2022/01/08 02:48:38;;;;;;;19.62;10.38;;;;;;;-4.87;83.13;101204.59;1655843;86;21288;-80
2022/01/08 02:51:43;;;;;;;23.77;9.45;;;;;;;-4.90;82.78;101213.57;1669632;85;21894;-83
2022/01/08 02:54:48;;;;;;;20.75;8.50;;;;;;;-4.94;82.75;101209.30;1655791;86;21340;-77
2022/01/08 02:57:54;;;;;;;20.88;8.33;;;;;;;-5.03;82.29;101208.30;1669855;86;21324;-77
2022/01/08 03:01:00;;;;;;;20.25;9.60;;;;;;;-5.13;82.15;101216.20;1654670;85;21312;-83
2022/01/08 03:04:05;;;;;;;16.75;8.88;;;;;;;-5.20;82.34;101213.36;1669867;86;21830;-82
2022/01/08 03:07:11;;;;;;;20.15;9.93;;;;;;;-5.26;82.45;101214.45;1623452;87;21316;-83
2022/01/08 03:10:18;;;;;;;23.60;11.38;;;;;;;-5.29;82.76;101211.02;1641068;87;21328;-77
2022/01/08 03:13:23;;;;;;;20.62;10.93;;;;;;;-5.32;82.84;101221.31;1641164;87;21254;-77
2022/01/08 03:16:28;;;;;;;19.87;11.00;;;;;;;-5.33;83.14;101216.05;1641116;86;21775;-83
2022/01/08 03:19:35;;;;;;;19.65;9.55;;;;;;;-5.31;83.82;101219.08;1639797;87;21185;-82
2022/01/08 03:22:40;;;;;;;18.37;9.25;;;;;;;-5.29;84.00;101220.34;1641179;87;21365;-82
2022/01/08 03:25:47;;;;;;;19.15;9.60;;;;;;;-5.32;83.65;101219.98;1641111;87;21815;-82
2022/01/08 03:28:53;;;;;;;18.90;9.85;;;;;;;-5.36;83.42;101213.47;1640464;87;21194;-77
2022/01/08 03:31:58;;;;;;;25.25;10.03;;;;;;;-5.38;83.67;101219.34;1641007;87;21332;-77
2022/01/08 03:35:04;;;;;;;18.20;9.63;;;;;;;-5.37;84.19;101216.60;1641168;87;21791;-83
2022/01/08 03:38:09;;;;;;;25.88;9.15;;;;;;;-5.32;84.56;101217.78;1641288;87;21194;-83
2022/01/08 03:41:14;;;;;;;16.20;8.58;;;;;;;-5.26;84.59;101216.25;1640595;87;21336;-77
2022/01/08 03:44:20;;;;;;;19.25;8.30;;;;;;;-5.25;84.29;101213.98;1641100;87;21853;-77
2022/01/08 03:50:32;;;;;;;14.68;6.95;;;;;;;-5.26;84.46;101217.13;1641179;87;21913;-82
2022/01/08 03:53:37;;;;;;;16.37;7.30;;;;;;;-5.22;84.70;101223.23;1641128;87;21304;-83
2022/01/08 03:56:43;;;;;;;17.02;8.00;;;;;;;-5.21;85.00;101216.50;1641078;87;21372;-77
2022/01/08 03:59:49;;;;;;;16.55;8.15;;;;;;;-5.16;85.00;101225.67;1641048;87;21843;-83
2022/01/08 04:02:56;;;;;;;14.25;7.85;;;;;;;-5.15;84.41;101224.27;1641164;87;21305;-80
2022/01/08 04:06:01;;;;;;;21.85;8.23;;;;;;;-5.17;83.70;101222.59;1641099;87;21221;-77
2022/01/08 04:09:06;;;;;;;18.65;7.78;;;;;;;-5.18;83.32;101228.84;1647411;85;21228;-77
2022/01/08 04:12:15;;;;;;;19.67;7.33;;;;;;;-5.22;82.98;101225.89;1651145;87;21339;-83
2022/01/08 04:18:28;;;;;;;15.48;7.28;;;;;;;-5.29;82.75;101234.55;1651253;87;21300;-82
2022/01/08 04:24:38;;;;;;;19.45;8.23;;;;;;;-5.35;82.65;101236.11;1651241;87;21352;-77
2022/01/08 04:27:44;;;;;;;15.30;7.83;;;;;;;-5.37;82.46;101242.41;1651237;87;21300;-77
2022/01/08 04:30:49;;;;;;;21.27;7.95;;;;;;;-5.41;82.29;101244.30;1650977;87;21216;-77
2022/01/08 04:33:54;;;;;;;20.23;8.40;;;;;;;-5.50;82.34;101249.50;1651160;87;21304;-77
2022/01/08 04:36:59;;;;;;;15.65;8.90;;;;;;;-5.52;82.90;101252.66;1651256;87;21343;-77
2022/01/08 04:40:04;;;;;;;19.00;8.65;;;;;;;-5.51;83.16;101262.86;1651288;87;21373;-83
2022/01/08 04:43:09;;;;;;;14.18;7.22;;;;;;;-5.49;83.49;101269.03;1651730;87;21337;-77
2022/01/08 04:46:01;;;;;;;16.83;8.70;;;;;;;-5.49;83.38;101264.58;1651865;87;21866;-77
2022/01/08 04:49:06;;;;;;;15.83;9.40;;;;;;;-5.51;83.00;101269.06;1651806;87;21304;-77
2022/01/08 04:52:12;;;;;;;16.40;8.38;;;;;;;-5.54;82.86;101266.52;1654626;85;21317;-82
2022/01/08 04:55:18;;;;;;;13.83;8.15;;;;;;;-5.55;83.10;101268.78;1656665;83;21288;-77
2022/01/08 04:58:23;;;;;;;18.73;9.38;;;;;;;-5.51;83.23;101266.40;1656740;83;21162;-77
2022/01/08 05:01:28;;;;;;;32.08;15.40;;;;;;;-5.50;83.13;101269.50;1650966;87;21328;-82
2022/01/08 05:04:33;;;;;;;50.98;22.95;;;;;;;-5.51;83.86;101270.40;1651220;87;21312;-83
2022/01/08 05:07:39;;;;;;;40.35;18.45;;;;;;;-5.44;84.96;101276.42;1651141;87;21347;-82
2022/01/08 05:10:45;;;;;;;54.90;24.92;;;;;;;-5.35;85.64;101270.78;1651490;85;21324;-82
2022/01/08 05:13:50;;;;;;;38.20;19.65;;;;;;;-5.27;85.81;101269.16;1652917;87;21186;-83
2022/01/08 05:17:00;;;;;;;43.68;21.60;;;;;;;-5.22;85.84;101275.24;1651558;85;21241;-83
2022/01/08 05:20:04;;;;;;;42.25;16.20;;;;;;;-5.20;85.78;101277.37;1652889;87;21198;-77
2022/01/08 05:23:10;;;;;;;35.33;14.60;;;;;;;-5.17;85.70;101287.48;1652865;87;21331;-77
2022/01/08 05:26:16;;;;;;;35.13;14.70;;;;;;;-5.21;85.58;101287.18;1652865;85;21344;-77
2022/01/08 05:29:21;;;;;;;31.20;14.13;;;;;;;-5.20;85.71;101293.38;1652919;87;21348;-80
2022/01/08 05:32:27;;;;;;;53.87;26.80;;;;;;;-5.22;85.84;101293.91;1653028;85;21865;-83
2022/01/08 05:35:33;;;;;;;50.90;21.05;;;;;;;-5.22;86.42;101295.25;1653057;85;21208;-82
2022/01/08 05:38:38;;;;;;;51.90;26.48;;;;;;;-5.23;86.84;101294.34;1652917;87;21776;-83
2022/01/08 05:41:42;;;;;;;61.48;31.50;;;;;;;-5.23;87.10;101294.81;1652871;85;21329;-77
2022/01/08 05:44:47;;;;;;;38.83;17.30;;;;;;;-5.20;87.37;101294.72;1652868;87;21312;-82
2022/01/08 05:47:52;;;;;;;35.05;15.38;;;;;;;-5.12;87.65;101298.47;1652936;87;21304;-76
2022/01/08 05:50:58;;;;;;;43.92;15.50;;;;;;;-5.04;87.65;101304.39;1652971;85;21865;-82
2022/01/08 05:54:03;;;;;;;36.98;14.95;;;;;;;-4.98;87.43;101302.87;1652955;87;21300;-77
2022/01/08 05:57:08;;;;;;;50.83;21.42;;;;;;;-4.92;87.20;101311.98;1652936;85;21746;-82
2022/01/08 06:00:13;;;;;;;52.60;21.25;;;;;;;-4.94;86.94;101317.38;1652901;85;21200;-77
2022/01/08 06:03:19;;;;;;;42.65;17.95;;;;;;;-4.98;86.78;101320.20;1652780;87;21336;-82
2022/01/08 06:06:24;;;;;;;42.08;16.85;;;;;;;-5.05;86.77;101324.87;1653026;85;21340;-77
2022/01/08 06:09:30;;;;;;;40.67;17.35;;;;;;;-5.12;86.88;101318.02;1653001;87;21312;-80
2022/01/08 06:12:36;;;;;;;43.15;15.90;;;;;;;-5.17;87.07;101320.83;1657735;86;21324;-81
2022/01/08 06:15:41;;;;;;;45.28;18.30;;;;;;;-5.18;87.32;101324.87;1657923;85;21330;-77
2022/01/08 06:18:46;;;;;;;52.03;21.30;;;;;;;-5.21;87.45;101319.19;1657960;86;21304;-82
2022/01/08 06:21:51;;;;;;;70.37;23.38;;;;;;;-5.16;87.60;101325.70;1657988;85;21228;-77
2022/01/08 06:24:57;;;;;;;51.50;23.35;;;;;;;-5.12;87.58;101317.14;1658008;86;21311;-80
2022/01/08 06:28:01;;;;;;;51.40;23.85;;;;;;;-5.04;87.55;101327.06;1657778;86;21359;-83
2022/01/08 06:31:07;;;;;;;58.23;20.82;;;;;;;-4.96;87.45;101331.22;1657903;85;21359;-77
2022/01/08 06:34:12;;;;;;;55.65;22.48;;;;;;;-4.89;87.38;101331.44;1657942;86;21221;-82
2022/01/08 06:37:17;;;;;;;48.73;18.70;;;;;;;-4.80;87.25;101332.02;1657821;85;21347;-81
2022/01/08 06:40:23;;;;;;;38.88;17.23;;;;;;;-4.72;87.17;101337.97;1657957;85;21307;-77
2022/01/08 06:43:29;;;;;;;45.75;18.57;;;;;;;-4.65;87.08;101327.48;1657589;86;21339;-77
2022/01/08 06:46:34;;;;;;;40.50;16.15;;;;;;;-4.57;86.93;101338.74;1657940;85;21339;-81
2022/01/08 06:49:38;;;;;;;42.00;16.23;;;;;;;-4.50;86.77;101336.74;1657924;86;21836;-78
2022/01/08 06:52:43;;;;;;;27.73;13.93;;;;;;;-4.43;86.65;101346.26;1657980;86;21221;-78
2022/01/08 06:55:49;;;;;;;30.40;11.03;;;;;;;-4.41;86.75;101338.61;1657881;85;21338;-77
2022/01/08 06:58:55;;;;;;;28.80;11.53;;;;;;;-4.38;86.81;101340.28;1657881;86;21204;-79
2022/01/08 07:02:00;;;;;;;29.95;12.55;;;;;;;-4.36;86.93;101350.47;1657820;85;21319;-82
2022/01/08 07:05:06;;;;;;;24.20;9.85;;;;;;;-4.33;87.00;101348.13;1657931;85;21352;-77
2022/01/08 07:08:11;;;;;;;21.12;8.73;;;;;;;-4.29;87.22;101347.09;1657958;86;21250;-82
2022/01/08 07:11:20;;;;;;;24.70;9.50;;;;;;;-4.28;87.50;101348.83;1657041;85;21935;-77
2022/01/08 07:14:25;;;;;;;26.65;11.45;;;;;;;-4.25;87.58;101342.05;1650924;87;21328;-77
2022/01/08 07:17:30;;;;;;;26.17;10.18;;;;;;;-4.18;87.64;101347.58;1651152;86;21221;-77
2022/01/08 07:20:35;;;;;;;28.12;11.30;;;;;;;-4.13;87.66;101348.28;1651262;86;21316;-82
2022/01/08 07:23:41;;;;;;;38.40;15.38;;;;;;;-4.07;87.70;101345.84;1651273;87;21296;-78
2022/01/08 07:26:46;;;;;;;35.98;16.57;;;;;;;-4.02;87.43;101340.72;1649860;86;21244;-81
2022/01/08 07:29:51;;;;;;;62.05;18.75;;;;;;;-3.95;87.06;101340.00;1651070;87;22068;-82
2022/01/08 07:32:58;;;;;;;65.72;20.97;;;;;;;-3.93;86.76;101328.34;1651189;87;21190;-77
2022/01/08 07:36:03;;;;;;;53.58;22.70;;;;;;;-3.87;86.88;101337.91;1651209;86;21344;-77
2022/01/08 07:39:09;;;;;;;45.17;17.30;;;;;;;-3.77;86.60;101334.41;1651195;87;21320;-82
2022/01/08 07:42:14;;;;;;;45.08;20.15;;;;;;;-3.72;86.00;101335.10;1651075;86;21344;-77
2022/01/08 07:45:20;;;;;;;34.00;15.30;;;;;;;-3.65;85.43;101329.94;1651095;86;21328;-82
2022/01/08 07:48:25;;;;;;;34.30;14.30;;;;;;;-3.60;85.07;101331.95;1651344;87;21296;-82
2022/01/08 07:51:31;;;;;;;30.68;15.78;;;;;;;-3.53;84.25;101332.56;1651172;86;21241;-81
2022/01/08 07:54:36;;;;;;;30.70;14.63;;;;;;;-3.45;83.99;101327.78;1651214;87;21225;-77
2022/01/08 07:57:41;;;;;;;36.28;19.82;;;;;;;-3.38;83.53;101323.94;1651355;87;21309;-78
2022/01/08 08:00:47;;;;;;;30.72;14.23;;;;;;;-3.31;82.96;101320.06;1651245;86;21839;-82
2022/01/08 08:03:52;;;;;;;30.97;14.63;;;;;;;-3.28;81.92;101313.73;1650934;87;21312;-78
2022/01/08 08:06:58;;;;;;;24.55;16.62;;;;;;;-3.25;81.64;101312.24;1651131;86;21368;-81
2022/01/08 08:10:05;;;;;;;32.55;10.60;;;;;;;-3.22;81.22;101306.77;1649887;87;21737;-77
2022/01/08 08:13:10;;;;;;;30.65;13.28;;;;;;;-3.17;80.61;101298.08;1651813;86;21289;-82
2022/01/08 08:16:15;;;;;;;32.15;11.68;;;;;;;-3.11;80.28;101296.47;1652623;85;21346;-81
2022/01/08 08:19:21;;;;;;;23.45;13.98;;;;;;;-3.04;79.96;101289.07;1652658;87;21331;-82
2022/01/08 08:22:25;;;;;;;21.20;11.35;;;;;;;-2.98;79.30;101278.95;1652901;85;21205;-77
2022/01/08 08:25:29;;;;;;;21.37;9.63;;;;;;;-2.91;78.27;101280.92;1632382;85;21339;-81
2022/01/08 08:28:34;;;;;;;20.12;9.53;;;;;;;-2.90;78.04;101276.82;1652904;87;21300;-77
2022/01/08 08:31:39;;;;;;;18.35;7.08;;;;;;;-2.85;77.24;101272.13;1652870;87;21340;-77
2022/01/08 08:34:44;;;;;;;17.20;5.70;;;;;;;-2.81;76.53;101266.66;1652931;87;21325;-80
2022/01/08 08:37:51;;;;;;;16.32;9.45;;;;;;;-2.79;76.35;101261.61;1652871;87;21853;-82
2022/01/08 08:41:00;;;;;;;14.00;6.40;;;;;;;-2.78;76.14;101255.78;1658547;85;21868;-82
2022/01/08 08:44:02;;;;;;;10.43;6.33;;;;;;;-2.73;77.04;101257.34;1681269;85;21808;-83
2022/01/08 08:47:10;;;;;;;9.88;3.05;;;;;;;-2.65;76.49;101251.63;1681310;85;21332;-82
2022/01/08 08:50:18;;;;;;;16.42;4.40;;;;;;;-2.58;74.31;101254.44;1681058;85;21339;-82
2022/01/08 08:53:22;;;;;;;27.48;4.37;;;;;;;-2.54;71.17;101248.45;1681455;85;21336;-83
2022/01/08 08:56:28;;;;;;;13.45;4.10;;;;;;;-2.49;70.23;101245.98;1681732;85;21316;-83
2022/01/08 08:59:33;;;;;;;11.28;4.50;;;;;;;-2.45;70.63;101246.22;1681854;85;21315;-83
2022/01/08 09:02:39;;;;;;;8.13;4.20;;;;;;;-2.40;68.95;101237.53;1681669;85;21311;-82
2022/01/08 09:05:46;;;;;;;15.75;5.87;;;;;;;-2.40;68.71;101234.84;1681347;85;21359;-82
2022/01/08 09:08:51;;;;;;;9.33;3.33;;;;;;;-2.34;70.08;101233.69;1681697;85;21307;-78
2022/01/08 09:11:58;;;;;;;9.48;3.05;;;;;;;-2.28;70.09;101233.39;1681805;85;21872;-78
2022/01/08 09:15:03;;;;;;;7.62;3.10;;;;;;;-2.24;68.65;101230.10;1683309;84;21840;-78
2022/01/08 09:18:07;;;;;;;9.45;2.47;;;;;;;-2.22;68.00;101225.52;1684922;85;21828;-83
2022/01/08 09:21:11;;;;;;;8.68;5.12;;;;;;;-2.22;69.13;101213.46;1684627;85;21204;-82
2022/01/08 09:24:22;;;;;;;11.00;4.60;;;;;;;-2.16;69.36;101211.86;1684823;85;21324;-83
2022/01/08 09:27:25;;;;;;;6.75;3.62;;;;;;;-2.12;68.27;101208.95;1684708;85;21263;-83
2022/01/08 09:30:31;;;;;;;6.60;2.70;;;;;;;-2.09;67.92;101214.62;1684769;85;21217;-77
2022/01/08 09:33:38;;;;;;;6.90;3.95;;;;;;;-2.08;67.51;101195.77;1684763;85;21299;-80
2022/01/08 09:36:44;;;;;;;4.15;2.83;;;;;;;-2.04;66.34;101207.22;1684293;85;21849;-83
2022/01/08 09:39:50;;;;;;;7.12;4.15;;;;;;;-2.04;66.27;101195.16;1684878;85;21173;-78
2022/01/08 09:42:55;;;;;;;6.78;5.17;;;;;;;-2.07;66.32;101185.91;1684803;85;21169;-83
2022/01/08 09:46:00;;;;;;;15.95;3.77;;;;;;;-2.08;66.08;101179.69;1684382;85;21319;-82
2022/01/08 09:49:05;;;;;;;6.37;3.80;;;;;;;-2.08;66.46;101184.19;1684755;85;21339;-79
2022/01/08 09:52:12;;;;;;;8.78;3.90;;;;;;;-2.08;67.21;101180.16;1684554;85;21197;-78
2022/01/08 09:55:17;;;;;;;9.18;3.90;;;;;;;-2.02;68.63;101177.65;1684784;85;21315;-82
2022/01/08 09:58:22;;;;;;;7.25;4.33;;;;;;;-1.96;66.86;101181.39;1684784;85;21161;-82
2022/01/08 10:01:35;;;;;;;7.53;3.70;;;;;;;-1.91;66.44;101168.15;1684693;85;21204;-83
2022/01/08 10:04:41;;;;;;;9.73;4.05;;;;;;;-1.85;66.73;101164.28;1684745;85;21165;-82
2022/01/08 10:07:48;;;;;;;11.95;4.17;;;;;;;-1.82;66.75;101169.03;1684626;85;21932;-83
2022/01/08 10:11:10;;;;;;;15.10;5.95;;;;;;;-1.78;65.54;101156.82;1684767;85;21845;-79
2022/01/08 10:14:28;;;;;;;7.00;3.42;;;;;;;-1.74;65.28;101155.70;1684772;85;21299;-78
2022/01/08 10:17:22;;;;;;;16.15;9.20;;;;;;;-1.72;65.08;101156.50;1699983;84;21350;-78
2022/01/08 10:20:49;;;;;;;11.93;3.45;;;;;;;-1.70;65.24;101154.59;1700121;84;21231;-83
2022/01/08 10:23:59;;;;;;;8.38;3.47;;;;;;;-1.67;64.75;101137.88;1700029;84;21291;-81
2022/01/08 10:27:12;;;;;;;;;;;;;;;-1.68;63.58;101141.52;1702657;84;21215;-82
2022/01/08 10:30:16;;;;;;;6.97;3.58;;;;;;;-1.68;65.12;101130.79;1700052;84;20197;-78
2022/01/08 10:33:21;;;;;;;7.08;4.20;;;;;;;-1.67;65.99;101128.49;1690277;84;21218;-82
2022/01/08 10:36:42;;;;;;;8.88;4.92;;;;;;;-1.65;65.43;101123.91;1699951;84;21346;-83
2022/01/08 10:39:48;;;;;;;11.10;7.08;;;;;;;-1.61;62.58;101126.83;1700020;84;21318;-82
2022/01/08 10:42:54;;;;;;;14.65;5.70;;;;;;;-1.57;62.48;101132.44;1700068;84;21287;-79
2022/01/08 10:46:02;;;;;;;8.83;4.50;;;;;;;-1.51;61.59;101112.94;1699962;84;21329;-82
2022/01/08 10:49:09;;;;;;;7.60;4.83;;;;;;;-1.44;63.08;101111.20;1699463;84;21876;-83
2022/01/08 10:52:18;;;;;;;9.15;4.67;;;;;;;-1.40;62.89;101100.71;1699802;84;21832;-78
2022/01/08 10:55:22;;;;;;;8.60;5.47;;;;;;;-1.36;63.45;101108.14;1699855;84;21298;-78
2022/01/08 10:58:35;;;;;;;10.10;3.27;;;;;;;-1.34;63.44;101098.17;1699245;84;21310;-83
2022/01/08 11:01:53;;;;;;;10.08;4.78;;;;;;;-1.29;62.68;101100.13;1699927;84;21761;-82
2022/01/08 11:04:59;;;;;;;13.20;6.05;;;;;;;-1.27;62.37;101097.36;1700003;84;21211;-78
2022/01/08 11:08:23;;;;;;;9.13;4.37;;;;;;;-1.24;62.91;101094.05;1699411;84;21325;-77
2022/01/08 11:11:30;;;;;;;8.00;5.08;;;;;;;-1.18;64.29;101090.16;1700021;84;21330;-83
2022/01/08 11:18:02;;;;;;;14.85;5.97;;;;;;;-1.02;62.32;101089.73;1696953;84;21923;-79
2022/01/08 11:21:08;;;;;;;7.92;4.87;;;;;;;-1.00;62.16;101088.30;1697281;84;21280;-82
2022/01/08 11:24:14;;;;;;;41.48;22.45;;;;;;;-0.95;61.09;101093.81;1697122;84;21318;-79
2022/01/08 11:27:19;;;;;;;63.98;27.45;;;;;;;-0.92;60.09;101088.28;1697334;84;21350;-82
2022/01/08 11:30:28;;;;;;;28.47;11.20;;;;;;;-0.90;58.74;101089.05;1697097;84;21299;-82
2022/01/08 11:33:36;;;;;;;;;;;;;;;-0.90;60.58;101087.70;1701699;82;21221;-78
2022/01/08 11:36:47;;;;;;;262.93;64.60;;;;;;;-0.87;60.42;101075.94;1702341;83;20264;-77
2022/01/08 11:39:49;;;;;;;622.33;183.32;;;;;;;-0.82;61.40;101068.49;1702417;82;21284;-77
2022/01/08 11:42:55;;;;;;;341.73;87.78;;;;;;;-0.75;60.43;101083.33;1697942;83;21176;-77
2022/01/08 11:46:04;;;;;;;10.32;5.08;;;;;;;-0.70;60.71;101076.36;1696968;84;21244;-78
2022/01/08 11:49:09;;;;;;;16.20;6.73;;;;;;;-0.66;60.23;101069.39;1697161;84;21298;-82
2022/01/08 11:52:28;;;;;;;21.20;10.55;;;;;;;-0.61;59.55;101071.78;1696909;84;21334;-83
2022/01/08 11:55:43;;;;;;;18.57;9.70;;;;;;;-0.58;58.23;101062.22;1697243;84;21828;-78
2022/01/08 11:58:49;;;;;;;8.30;6.50;;;;;;;-0.57;57.42;101069.31;1695499;84;21212;-78
2022/01/08 12:02:14;;;;;;;21.93;13.78;;;;;;;-0.53;56.39;101067.71;1686044;84;21306;-82
2022/01/08 12:05:21;;;;;;;11.38;5.00;;;;;;;-0.51;54.19;101066.30;1697051;84;21362;-83
2022/01/08 12:08:25;;;;;;;15.05;7.03;;;;;;;-0.47;53.71;101070.56;1696868;84;21365;-82
2022/01/08 12:11:31;;;;;;;11.65;6.97;;;;;;;-0.50;54.15;101074.75;1697030;84;21315;-78
2022/01/08 12:14:44;;;;;;;10.15;3.85;;;;;;;-0.48;53.88;101072.83;1696964;84;21302;-78
2022/01/08 12:18:06;;;;;;;9.83;6.42;;;;;;;-0.50;54.13;101076.09;1689276;84;21240;-78
2022/01/08 12:21:11;;;;;;;13.00;7.42;;;;;;;-0.53;54.19;101073.57;1684944;85;21311;-82
2022/01/08 12:24:39;;;;;;;15.20;11.08;;;;;;;-0.51;54.41;101074.37;1684738;85;21865;-78
2022/01/08 12:27:51;;;;;;;17.92;12.28;;;;;;;-0.52;53.90;101066.78;1684858;85;21303;-78
2022/01/08 12:30:58;;;;;;;23.05;17.73;;;;;;;-0.51;54.79;101070.34;1684826;85;21335;-82
2022/01/08 12:34:35;;;;;;;37.08;24.05;;;;;;;-0.56;55.05;101065.70;1684883;85;21288;-81
2022/01/08 12:37:45;;;;;;;35.52;29.30;;;;;;;-0.64;55.83;101051.83;1684717;85;21762;-78
2022/01/08 12:40:52;;;;;;;15.68;7.47;;;;;;;-0.71;55.83;101048.59;1684781;85;21889;-78
2022/01/08 12:43:57;;;;;;;25.15;14.33;;;;;;;-0.75;57.85;101044.83;1684742;85;21330;-82
2022/01/08 12:47:03;;;;;;;28.90;22.32;;;;;;;-0.78;59.19;101045.41;1684863;85;21331;-78
2022/01/08 12:50:33;;;;;;;22.02;14.20;;;;;;;-0.78;59.77;101048.09;1684752;85;21291;-82
2022/01/08 12:53:37;;;;;;;;;;;;;;;-0.85;58.73;101051.19;1687389;85;21292;-82
2022/01/08 12:56:43;;;;;;;29.65;23.25;;;;;;;-0.94;60.08;101039.61;1684737;85;20257;-83
2022/01/08 12:59:49;;;;;;;16.65;9.03;;;;;;;-0.98;59.94;101034.91;1684712;85;21908;-78
2022/01/08 13:02:54;;;;;;;10.82;7.60;;;;;;;-1.02;59.80;101037.37;1684826;85;21319;-78
2022/01/08 13:06:00;;;;;;;15.50;9.85;;;;;;;-1.08;60.15;101039.92;1684755;85;21252;-78
2022/01/08 13:09:08;;;;;;;19.77;7.10;;;;;;;-1.08;60.75;101034.55;1684807;85;21343;-80
2022/01/08 13:12:14;;;;;;;19.15;12.07;;;;;;;-1.12;61.48;101042.86;1683324;85;21267;-83
2022/01/08 13:15:19;;;;;;;14.15;9.15;;;;;;;-1.16;61.78;101042.64;1684691;85;21371;-78
2022/01/08 13:18:28;;;;;;;43.87;35.33;;;;;;;-1.21;61.11;101025.44;1683646;85;21374;-82
2022/01/08 13:22:02;;;;;;;14.15;10.93;;;;;;;-1.21;61.16;101018.72;1684744;85;21886;-78
2022/01/08 13:25:08;;;;;;;24.27;12.85;;;;;;;-1.24;61.83;101024.73;1683329;85;21173;-78
2022/01/08 13:28:13;;;;;;;25.02;21.37;;;;;;;-1.28;62.66;101028.05;1684730;85;21295;-83
2022/01/08 13:31:18;;;;;;;16.45;10.53;;;;;;;-1.31;63.16;101027.75;1684561;85;21299;-78
2022/01/08 13:34:22;;;;;;;21.97;17.20;;;;;;;-1.34;64.38;101024.36;1684831;85;21340;-78
2022/01/08 13:37:31;;;;;;;19.80;13.68;;;;;;;-1.39;65.07;101017.91;1684551;85;21220;-78
2022/01/08 13:40:37;;;;;;;13.32;9.40;;;;;;;-1.40;66.26;101019.34;1684956;85;21335;-83
2022/01/08 13:44:06;;;;;;;14.78;11.38;;;;;;;-1.44;66.78;101023.99;1684886;85;21180;-78
2022/01/08 13:47:11;;;;;;;12.60;8.15;;;;;;;-1.48;67.52;101018.39;1684709;85;21359;-83
2022/01/08 13:50:36;;;;;;;12.37;6.08;;;;;;;-1.52;68.05;101015.48;1684805;85;21379;-78
2022/01/08 13:53:42;;;;;;;10.82;7.53;;;;;;;-1.57;68.07;101021.09;1684822;85;21291;-81
2022/01/08 13:56:48;;;;;;;11.63;6.28;;;;;;;-1.60;68.33;101016.36;1683426;85;21223;-77
2022/01/08 13:59:53;;;;;;;17.02;9.28;;;;;;;-1.61;68.92;101012.80;1684791;85;21315;-78
2022/01/08 14:03:01;;;;;;;18.35;11.48;;;;;;;-1.63;69.40;101009.35;1684825;85;21861;-83
2022/01/08 14:06:09;;;;;;;13.78;8.10;;;;;;;-1.65;69.44;101007.69;1684706;85;21351;-82
2022/01/08 14:09:16;;;;;;;21.85;13.93;;;;;;;-1.69;69.76;100998.09;1684897;85;21299;-79
2022/01/08 14:12:21;;;;;;;12.00;6.95;;;;;;;-1.74;70.11;100995.66;1684946;85;21244;-78
2022/01/08 14:15:33;;;;;;;17.50;5.78;;;;;;;-1.78;70.78;100999.92;1684803;85;21747;-82
2022/01/08 14:18:38;;;;;;;13.00;7.75;;;;;;;-1.82;71.23;100999.20;1683364;85;21726;-82
2022/01/08 14:21:45;;;;;;;18.67;8.90;;;;;;;-1.85;71.66;101000.22;1681285;85;21328;-83
2022/01/08 14:24:55;;;;;;;7.37;4.05;;;;;;;-1.85;71.87;101002.04;1681319;85;21311;-78
2022/01/08 14:27:58;;;;;;;10.45;6.22;;;;;;;-1.87;72.34;100995.91;1681249;85;21794;-78
2022/01/08 14:31:25;;;;;;;11.48;4.70;;;;;;;-1.90;72.69;100992.03;1681005;85;21339;-77
2022/01/08 14:34:29;;;;;;;10.28;5.20;;;;;;;-1.92;72.71;100992.13;1681306;85;21240;-79
2022/01/08 14:37:45;;;;;;;14.35;8.33;;;;;;;-1.93;72.88;100994.86;1681305;85;21841;-82
2022/01/08 14:40:53;;;;;;;12.58;4.97;;;;;;;-1.93;72.82;100990.84;1679985;85;21224;-78
2022/01/08 14:44:07;;;;;;;14.00;5.03;;;;;;;-1.96;72.64;100995.91;1681786;85;21319;-79
2022/01/08 14:47:11;;;;;;;11.80;7.37;;;;;;;-1.97;72.70;101003.56;1681643;85;21189;-77
2022/01/08 14:50:30;;;;;;;10.35;4.83;;;;;;;-1.97;72.89;101003.56;1681861;85;21924;-83
2022/01/08 14:53:36;;;;;;;24.70;16.30;;;;;;;-1.96;73.14;101007.97;1681773;85;21356;-78